Weather History for KUSE - April, 2014

Change the Weather History Date:

Friday, April 4, 2014

  Actual Average (KTOL) Record (KTOL)
Temperature  
Mean Temperature 40 °F 45 °F  
Max Temperature 46 °F 55 °F 78 °F (1882)
Min Temperature 35 °F 35 °F 14 °F (1971)
Degree Days  
Heating Degree Days 24 20  
Month to date heating degree days 82  
Since 1 July heating degree days 5508  
Cooling Degree Days 0 0  
Month to date cooling degree days 0  
Year to date cooling degree days 0  
Moisture  
Dew Point 37 °F    
Average Humidity 95    
Maximum Humidity 100    
Minimum Humidity 81    
Precipitation  
Precipitation 0.00 in 0.10 in 1.52 in (2003)
Month to date precipitation 0.40  
Year to date precipitation 7.00  
Snow  
Snow 0.00 in 0.10 in - ()
Month to date snowfall 0.4  
Since 1 July snowfall 36.6  
Snow Depth -    
Sea Level Pressure  
Sea Level Pressure 29.63 in    
Wind  
Wind Speed 14 mph (WSW)    
Max Wind Speed 31 mph    
Max Gust Speed 41 mph    
Visibility 4 miles    
Events Fog , Rain    
T = Trace of Precipitation, MM = Missing Value Source: NWS Daily Summary

Daily Weather History Graph

Daily Weather History Graph

Search for Another Location

Airport or City:

Trip Planner

Search our weather history database for the weather conditions in past years. The results will help you decide how hot, cold, wet, or windy it might be!

Date:

Astronomy

Apr. 04, 2014 Rise Set
Actual Time 7:14 AM EDT 8:05 PM EDT
Civil Twilight 6:46 AM EDT 8:33 PM EDT
Nautical Twilight 6:12 AM EDT 9:06 PM EDT
Astronomical Twilight 5:38 AM EDT 9:41 PM EDT
Moon 10:27 AM EDT 12:25 AM EDT
Length of Visible Light 13h 47m
Length of Day
12h 50m
Waxing Crescent, 25% of the Moon is Illuminated
Apr 4
Waxing Crescent
Apr 7
First Quarter
Apr 15
Full
Apr 22
Last Quarter
Apr 29
New

Hourly Weather History & Observations

Time (EDT) Temp. Windchill Dew Point Humidity Pressure Visibility Wind Dir Wind Speed Gust Speed Precip Events Conditions
12:15 AM 35.6 °F 25.2 °F 35.6 °F 100% 29.76 in 2.0 mi ENE 18.4 mph 25.3 mph N/A   Overcast
12:35 AM 35.6 °F 26.2 °F 35.6 °F 100% 29.77 in 2.0 mi ENE 15.0 mph 21.9 mph N/A   Overcast
12:55 AM 35.6 °F 25.9 °F 35.6 °F 100% 29.77 in 1.8 mi East 16.1 mph 21.9 mph N/A   Overcast
1:15 AM 35.6 °F 25.5 °F 35.6 °F 100% 29.75 in 1.5 mi East 17.3 mph - N/A   Overcast
1:35 AM 35.6 °F 24.2 °F 35.6 °F 100% 29.72 in 1.2 mi ENE 21.9 mph - N/A   Overcast
1:55 AM 35.6 °F 26.6 °F 35.6 °F 100% 29.75 in 1.2 mi East 13.8 mph - N/A   Overcast
2:15 AM 35.6 °F 27.5 °F 35.6 °F 100% 29.75 in 1.2 mi East 11.5 mph - N/A   Overcast
2:35 AM 35.6 °F 28.0 °F 35.6 °F 100% 29.76 in 1.0 mi ESE 10.4 mph - N/A   Overcast
2:55 AM 35.6 °F 28.6 °F 35.6 °F 100% 29.75 in 0.8 mi East 9.2 mph - N/A   Overcast
3:15 AM 35.6 °F 28.0 °F 35.6 °F 100% 29.74 in 0.5 mi East 10.4 mph - N/A Fog Fog
3:35 AM 35.6 °F 29.9 °F 35.6 °F 100% 29.74 in 0.2 mi ENE 6.9 mph - N/A Fog Fog
3:55 AM 35.6 °F 29.2 °F 35.6 °F 100% 29.72 in 0.2 mi East 8.1 mph - N/A Fog Fog
4:15 AM 35.6 °F 30.7 °F 35.6 °F 100% 29.72 in 0.2 mi ENE 5.8 mph - N/A Fog Fog
4:35 AM 35.6 °F 30.7 °F 35.6 °F 100% 29.71 in 0.2 mi ENE 5.8 mph - N/A Fog Fog
4:55 AM 35.6 °F 29.2 °F 35.6 °F 100% 29.69 in 0.2 mi East 8.1 mph - N/A Fog Fog
5:15 AM 35.6 °F 28.6 °F 35.6 °F 100% 29.67 in 0.2 mi East 9.2 mph - N/A Fog Fog
5:35 AM 35.6 °F 28.6 °F 35.6 °F 100% 29.64 in 0.2 mi East 9.2 mph - N/A Fog Fog
5:55 AM 35.6 °F 28.6 °F 35.6 °F 100% 29.63 in 0.2 mi ESE 9.2 mph - N/A   Overcast
6:15 AM 35.6 °F 29.2 °F 35.6 °F 100% 29.59 in 0.2 mi East 8.1 mph - N/A Fog Fog
6:35 AM 35.6 °F 28.0 °F 35.6 °F 100% 29.58 in 0.2 mi East 10.4 mph - N/A Fog Fog
6:55 AM 35.6 °F 28.6 °F 35.6 °F 100% 29.57 in 0.2 mi ESE 9.2 mph - N/A Fog Fog
7:15 AM 35.6 °F 28.6 °F 35.6 °F 100% 29.57 in 0.2 mi ESE 9.2 mph - N/A Fog Fog
7:35 AM 35.6 °F - 35.6 °F 100% 29.59 in 0.2 mi Calm Calm - N/A Fog Fog
7:55 AM 35.6 °F 31.7 °F 35.6 °F 100% 29.59 in 0.2 mi NE 4.6 mph - N/A Fog Fog
8:15 AM 35.6 °F 28.6 °F 35.6 °F 100% 29.56 in 0.2 mi East 9.2 mph - N/A Fog Fog
8:35 AM 35.6 °F 28.6 °F 35.6 °F 100% 29.53 in 0.2 mi East 9.2 mph 16.1 mph N/A Fog Fog
8:55 AM 37.4 °F 32.1 °F 37.4 °F 100% 29.54 in 0.2 mi East 6.9 mph - N/A Fog Fog
9:15 AM 37.4 °F 32.8 °F 37.4 °F 100% 29.53 in 0.2 mi East 5.8 mph - N/A Fog Fog
9:35 AM 39.2 °F 34.2 °F 39.2 °F 100% 29.50 in 0.2 mi ENE 6.9 mph - N/A Fog Fog
9:55 AM 39.2 °F 34.2 °F 39.2 °F 100% 29.48 in 0.2 mi ENE 6.9 mph - N/A Fog Fog
10:15 AM 39.2 °F 31.6 °F 39.2 °F 100% 29.50 in 0.2 mi WNW 12.7 mph - N/A Fog Fog
10:35 AM 39.2 °F 35.0 °F 39.2 °F 100% 29.49 in 0.2 mi North 5.8 mph - N/A Fog Fog
10:55 AM 39.2 °F 35.9 °F 39.2 °F 100% 29.49 in 0.2 mi North 4.6 mph - N/A Fog Fog
11:15 AM 39.2 °F - 39.2 °F 100% 29.49 in 0.2 mi Calm Calm - N/A Fog Fog
11:35 AM 39.2 °F - 39.2 °F 100% 29.49 in 0.2 mi Calm Calm - N/A Fog Fog
11:55 AM 39.2 °F - 39.2 °F 100% 29.48 in 0.2 mi Calm Calm - N/A Fog Fog
12:15 PM 41.0 °F - 41.0 °F 100% 29.47 in 0.2 mi Calm Calm - N/A Fog Fog
12:35 PM 41.0 °F - 41.0 °F 100% 29.46 in 0.2 mi Calm Calm - N/A Fog Fog
12:55 PM 44.6 °F 39.2 °F 44.6 °F 100% 29.47 in 0.2 mi WSW 10.4 mph 18.4 mph N/A Fog Fog
1:15 PM 44.6 °F 39.2 °F 44.6 °F 100% 29.47 in 1.5 mi WSW 10.4 mph - N/A Rain Light Rain
1:35 PM 46.4 °F 39.5 °F 46.4 °F 100% 29.48 in 2.5 mi West 17.3 mph - N/A   Overcast
1:55 PM 46.4 °F 39.8 °F 46.4 °F 100% 29.48 in 4.0 mi West 16.1 mph - N/A   Overcast
2:15 PM 46.4 °F 39.8 °F 46.4 °F 100% 29.49 in 4.0 mi WSW 16.1 mph - N/A   Overcast
2:35 PM 46.4 °F 38.3 °F 46.4 °F 100% 29.50 in 4.0 mi WSW 23.0 mph 35.7 mph N/A   Overcast
2:55 PM 46.4 °F 38.3 °F 46.4 °F 100% 29.51 in 8.0 mi WSW 23.0 mph 34.5 mph N/A   Overcast
3:15 PM 46.4 °F 38.3 °F 42.8 °F 87% 29.52 in 9.0 mi WSW 23.0 mph 32.2 mph N/A   Overcast
3:35 PM 44.6 °F 36.4 °F 41.0 °F 87% 29.53 in 10.0 mi WSW 20.7 mph 38.0 mph N/A   Overcast
4:15 PM 44.6 °F 34.9 °F 41.0 °F 87% 29.54 in 8.0 mi West 28.8 mph 38.0 mph N/A   Overcast
4:35 PM 44.6 °F 34.9 °F 39.2 °F 81% 29.55 in 10.0 mi WSW 28.8 mph 38.0 mph N/A   Overcast
4:55 PM 41.0 °F 30.7 °F 39.2 °F 93% 29.57 in 10.0 mi WSW 25.3 mph 35.7 mph N/A   Overcast
5:15 PM 41.0 °F 29.7 °F 37.4 °F 87% 29.58 in 10.0 mi West 31.1 mph 41.4 mph N/A   Overcast
5:35 PM 41.0 °F 29.8 °F 35.6 °F 81% 29.60 in 10.0 mi West 29.9 mph - N/A   Overcast
5:55 PM 41.0 °F 29.8 °F 35.6 °F 81% 29.62 in 10.0 mi West 29.9 mph 40.3 mph N/A   Overcast
6:15 PM 39.2 °F 28.5 °F 37.4 °F 93% 29.63 in 3.0 mi West 24.2 mph 34.5 mph N/A Rain Light Rain
6:35 PM 39.2 °F 27.8 °F 37.4 °F 93% 29.65 in 2.5 mi West 27.6 mph 38.0 mph N/A Rain Light Rain
6:55 PM 39.2 °F 27.6 °F 37.4 °F 93% 29.66 in 5.0 mi West 28.8 mph 38.0 mph N/A Rain Light Rain
7:15 PM 37.4 °F 25.0 °F 35.6 °F 93% 29.68 in 7.0 mi West 29.9 mph 40.3 mph N/A   Overcast
7:35 PM 37.4 °F 26.1 °F 33.8 °F 87% 29.69 in 10.0 mi West 24.2 mph 33.4 mph N/A Rain Light Rain
7:55 PM 37.4 °F 26.9 °F 33.8 °F 87% 29.70 in 10.0 mi West 20.7 mph 34.5 mph N/A   Overcast
8:15 PM 37.4 °F 25.2 °F 33.8 °F 87% 29.71 in 10.0 mi West 28.8 mph 36.8 mph N/A   Overcast
8:35 PM 37.4 °F 26.1 °F 32.0 °F 81% 29.72 in 10.0 mi WSW 24.2 mph 33.4 mph N/A   Overcast
8:55 PM 37.4 °F 26.4 °F 32.0 °F 81% 29.73 in 10.0 mi West 23.0 mph 39.1 mph N/A   Overcast
9:15 PM 37.4 °F 26.4 °F 32.0 °F 81% 29.75 in 10.0 mi West 23.0 mph 38.0 mph N/A   Overcast
9:35 PM 37.4 °F 27.8 °F 32.0 °F 81% 29.76 in 9.0 mi West 17.3 mph 27.6 mph N/A   Overcast
9:55 PM 35.6 °F 24.5 °F 32.0 °F 87% 29.76 in 7.0 mi West 20.7 mph 28.8 mph N/A   Overcast
10:15 PM 37.4 °F 26.6 °F 32.0 °F 81% 29.77 in 10.0 mi West 21.9 mph - N/A   Overcast
10:35 PM 37.4 °F 26.4 °F 32.0 °F 81% 29.78 in 10.0 mi West 23.0 mph - N/A   Overcast
10:55 PM 35.6 °F 23.7 °F 32.0 °F 87% 29.78 in 10.0 mi West 24.2 mph 31.1 mph N/A   Overcast
11:15 PM 35.6 °F 24.5 °F 32.0 °F 87% 29.79 in 8.0 mi West 20.7 mph 29.9 mph N/A Rain Light Rain
11:35 PM 35.6 °F 25.5 °F 32.0 °F 87% 29.80 in 10.0 mi West 17.3 mph 26.5 mph N/A   Overcast
11:55 PM 35.6 °F 24.8 °F 32.0 °F 87% 29.81 in 10.0 mi West 19.6 mph 25.3 mph N/A   Overcast